sensor_id;sensor_type;location;lat;lon;timestamp;temperature;humidity
38265;DHT22;24062;47.480;8.768;2022-09-24T00:00:44;15.50;64.30
38265;DHT22;24062;47.480;8.768;2022-09-24T00:03:17;15.50;64.40
38265;DHT22;24062;47.480;8.768;2022-09-24T00:05:45;15.50;64.40
38265;DHT22;24062;47.480;8.768;2022-09-24T00:08:13;15.50;64.40
38265;DHT22;24062;47.480;8.768;2022-09-24T00:10:42;15.40;64.40
38265;DHT22;24062;47.480;8.768;2022-09-24T00:13:13;15.40;64.40
38265;DHT22;24062;47.480;8.768;2022-09-24T00:15:41;15.40;64.50
38265;DHT22;24062;47.480;8.768;2022-09-24T00:18:09;15.40;64.60
38265;DHT22;24062;47.480;8.768;2022-09-24T00:20:37;15.40;64.50
38265;DHT22;24062;47.480;8.768;2022-09-24T00:23:04;15.40;64.70
38265;DHT22;24062;47.480;8.768;2022-09-24T00:25:32;15.40;64.90
38265;DHT22;24062;47.480;8.768;2022-09-24T00:28:18;15.50;65.10
38265;DHT22;24062;47.480;8.768;2022-09-24T00:30:45;15.60;65.30
38265;DHT22;24062;47.480;8.768;2022-09-24T00:33:11;15.60;65.30
38265;DHT22;24062;47.480;8.768;2022-09-24T00:35:38;15.60;65.40
38265;DHT22;24062;47.480;8.768;2022-09-24T00:38:06;15.60;65.50
38265;DHT22;24062;47.480;8.768;2022-09-24T00:40:35;15.60;65.50
38265;DHT22;24062;47.480;8.768;2022-09-24T00:45:45;15.70;65.60
38265;DHT22;24062;47.480;8.768;2022-09-24T00:48:12;15.70;65.60
38265;DHT22;24062;47.480;8.768;2022-09-24T00:50:39;15.80;65.80
38265;DHT22;24062;47.480;8.768;2022-09-24T00:53:09;15.80;65.70
38265;DHT22;24062;47.480;8.768;2022-09-24T00:55:39;15.80;65.80
38265;DHT22;24062;47.480;8.768;2022-09-24T00:58:08;15.90;65.80
38265;DHT22;24062;47.480;8.768;2022-09-24T01:00:37;15.90;65.90
38265;DHT22;24062;47.480;8.768;2022-09-24T01:03:08;15.90;66.00
38265;DHT22;24062;47.480;8.768;2022-09-24T01:05:36;15.90;66.10
38265;DHT22;24062;47.480;8.768;2022-09-24T01:08:05;15.90;66.20
38265;DHT22;24062;47.480;8.768;2022-09-24T01:10:52;16.00;66.40
38265;DHT22;24062;47.480;8.768;2022-09-24T01:13:30;16.00;66.70
38265;DHT22;24062;47.480;8.768;2022-09-24T01:16:04;15.80;66.70
38265;DHT22;24062;47.480;8.768;2022-09-24T01:18:39;15.80;68.00
38265;DHT22;24062;47.480;8.768;2022-09-24T01:21:17;15.60;69.20
38265;DHT22;24062;47.480;8.768;2022-09-24T01:24:00;15.40;69.60
38265;DHT22;24062;47.480;8.768;2022-09-24T01:26:47;15.30;70.00
38265;DHT22;24062;47.480;8.768;2022-09-24T01:29:28;15.20;70.60
38265;DHT22;24062;47.480;8.768;2022-09-24T01:31:59;15.20;70.60
38265;DHT22;24062;47.480;8.768;2022-09-24T01:34:38;15.20;70.60
38265;DHT22;24062;47.480;8.768;2022-09-24T01:37:06;15.20;70.80
38265;DHT22;24062;47.480;8.768;2022-09-24T01:39:36;15.20;70.70
38265;DHT22;24062;47.480;8.768;2022-09-24T01:42:03;15.30;70.90
38265;DHT22;24062;47.480;8.768;2022-09-24T01:44:33;15.30;70.70
38265;DHT22;24062;47.480;8.768;2022-09-24T01:47:03;15.30;70.80
38265;DHT22;24062;47.480;8.768;2022-09-24T01:49:31;15.30;70.90
38265;DHT22;24062;47.480;8.768;2022-09-24T01:52:00;15.30;70.90
38265;DHT22;24062;47.480;8.768;2022-09-24T01:54:33;15.30;71.10
38265;DHT22;24062;47.480;8.768;2022-09-24T01:57:06;15.20;71.20
38265;DHT22;24062;47.480;8.768;2022-09-24T01:59:38;15.20;71.20
38265;DHT22;24062;47.480;8.768;2022-09-24T02:02:10;15.20;71.30
38265;DHT22;24062;47.480;8.768;2022-09-24T02:04:41;15.20;71.60
38265;DHT22;24062;47.480;8.768;2022-09-24T02:07:12;15.20;71.80
38265;DHT22;24062;47.480;8.768;2022-09-24T02:09:42;15.20;71.80
38265;DHT22;24062;47.480;8.768;2022-09-24T02:12:11;15.20;71.90
38265;DHT22;24062;47.480;8.768;2022-09-24T02:14:44;15.20;72.10
38265;DHT22;24062;47.480;8.768;2022-09-24T02:17:14;15.20;72.30
38265;DHT22;24062;47.480;8.768;2022-09-24T02:19:41;15.20;72.30
38265;DHT22;24062;47.480;8.768;2022-09-24T02:22:10;15.20;72.40
38265;DHT22;24062;47.480;8.768;2022-09-24T02:24:43;15.20;72.40
38265;DHT22;24062;47.480;8.768;2022-09-24T02:27:11;15.20;72.70
38265;DHT22;24062;47.480;8.768;2022-09-24T02:29:38;15.30;72.80
38265;DHT22;24062;47.480;8.768;2022-09-24T02:32:08;15.30;72.90
38265;DHT22;24062;47.480;8.768;2022-09-24T02:34:39;15.30;72.90
38265;DHT22;24062;47.480;8.768;2022-09-24T02:37:08;15.20;72.90
38265;DHT22;24062;47.480;8.768;2022-09-24T02:39:35;15.20;72.90
38265;DHT22;24062;47.480;8.768;2022-09-24T02:42:02;15.20;73.00
38265;DHT22;24062;47.480;8.768;2022-09-24T02:44:30;15.20;73.10
38265;DHT22;24062;47.480;8.768;2022-09-24T02:46:57;15.20;73.10
38265;DHT22;24062;47.480;8.768;2022-09-24T02:49:25;15.20;73.30
38265;DHT22;24062;47.480;8.768;2022-09-24T02:51:52;15.20;73.40
38265;DHT22;24062;47.480;8.768;2022-09-24T02:54:20;15.30;73.50
38265;DHT22;24062;47.480;8.768;2022-09-24T02:56:47;15.20;73.50
38265;DHT22;24062;47.480;8.768;2022-09-24T02:59:14;15.20;73.60
38265;DHT22;24062;47.480;8.768;2022-09-24T03:01:41;15.20;73.60
38265;DHT22;24062;47.480;8.768;2022-09-24T03:04:08;15.20;73.80
38265;DHT22;24062;47.480;8.768;2022-09-24T03:06:37;15.20;73.90
38265;DHT22;24062;47.480;8.768;2022-09-24T03:09:04;15.20;73.90
38265;DHT22;24062;47.480;8.768;2022-09-24T03:11:31;15.20;73.90
38265;DHT22;24062;47.480;8.768;2022-09-24T03:13:59;15.20;74.00
38265;DHT22;24062;47.480;8.768;2022-09-24T03:16:26;15.20;74.00
38265;DHT22;24062;47.480;8.768;2022-09-24T03:18:53;15.10;74.00
38265;DHT22;24062;47.480;8.768;2022-09-24T03:21:20;15.10;74.30
38265;DHT22;24062;47.480;8.768;2022-09-24T03:23:49;15.20;74.60
38265;DHT22;24062;47.480;8.768;2022-09-24T03:26:16;15.20;74.70
38265;DHT22;24062;47.480;8.768;2022-09-24T03:28:43;15.20;74.60
38265;DHT22;24062;47.480;8.768;2022-09-24T03:31:10;15.20;74.70
38265;DHT22;24062;47.480;8.768;2022-09-24T03:33:38;15.20;74.80
38265;DHT22;24062;47.480;8.768;2022-09-24T03:36:08;15.20;74.90
38265;DHT22;24062;47.480;8.768;2022-09-24T03:38:37;15.20;75.00
38265;DHT22;24062;47.480;8.768;2022-09-24T03:41:06;15.30;75.50
38265;DHT22;24062;47.480;8.768;2022-09-24T03:43:34;15.30;75.10
38265;DHT22;24062;47.480;8.768;2022-09-24T03:46:02;15.30;75.20
38265;DHT22;24062;47.480;8.768;2022-09-24T03:48:31;15.30;75.20
38265;DHT22;24062;47.480;8.768;2022-09-24T03:51:02;15.30;75.10
38265;DHT22;24062;47.480;8.768;2022-09-24T03:53:29;15.40;75.10
38265;DHT22;24062;47.480;8.768;2022-09-24T03:55:57;15.30;74.90
38265;DHT22;24062;47.480;8.768;2022-09-24T03:58:25;15.30;75.10
38265;DHT22;24062;47.480;8.768;2022-09-24T04:00:52;15.30;75.30
38265;DHT22;24062;47.480;8.768;2022-09-24T04:03:20;15.30;75.30
38265;DHT22;24062;47.480;8.768;2022-09-24T04:05:47;15.40;75.50
38265;DHT22;24062;47.480;8.768;2022-09-24T04:08:16;15.40;75.50
38265;DHT22;24062;47.480;8.768;2022-09-24T04:10:44;15.40;75.40
38265;DHT22;24062;47.480;8.768;2022-09-24T04:13:11;15.40;75.40
38265;DHT22;24062;47.480;8.768;2022-09-24T04:15:39;15.40;75.50
38265;DHT22;24062;47.480;8.768;2022-09-24T04:18:06;15.40;75.60
38265;DHT22;24062;47.480;8.768;2022-09-24T04:20:33;15.40;75.60
38265;DHT22;24062;47.480;8.768;2022-09-24T04:23:01;15.40;75.60
38265;DHT22;24062;47.480;8.768;2022-09-24T04:25:30;15.40;75.60
38265;DHT22;24062;47.480;8.768;2022-09-24T04:27:58;15.40;75.80
38265;DHT22;24062;47.480;8.768;2022-09-24T04:30:26;15.40;75.90
38265;DHT22;24062;47.480;8.768;2022-09-24T04:32:55;15.50;75.90
38265;DHT22;24062;47.480;8.768;2022-09-24T04:35:26;15.40;75.80
38265;DHT22;24062;47.480;8.768;2022-09-24T04:37:54;15.40;75.80
38265;DHT22;24062;47.480;8.768;2022-09-24T04:40:21;15.40;76.00
38265;DHT22;24062;47.480;8.768;2022-09-24T04:42:48;15.40;76.10
38265;DHT22;24062;47.480;8.768;2022-09-24T04:45:15;15.40;76.10
38265;DHT22;24062;47.480;8.768;2022-09-24T04:47:44;15.40;76.20
38265;DHT22;24062;47.480;8.768;2022-09-24T04:50:13;15.40;76.40
38265;DHT22;24062;47.480;8.768;2022-09-24T04:52:40;15.40;76.40
38265;DHT22;24062;47.480;8.768;2022-09-24T04:55:07;15.40;76.40
38265;DHT22;24062;47.480;8.768;2022-09-24T04:57:34;15.40;76.50
38265;DHT22;24062;47.480;8.768;2022-09-24T05:00:02;15.30;76.40
38265;DHT22;24062;47.480;8.768;2022-09-24T05:02:30;15.40;76.70
38265;DHT22;24062;47.480;8.768;2022-09-24T05:04:57;15.40;76.70
38265;DHT22;24062;47.480;8.768;2022-09-24T05:07:25;15.40;76.70
38265;DHT22;24062;47.480;8.768;2022-09-24T05:09:52;15.40;76.90
38265;DHT22;24062;47.480;8.768;2022-09-24T05:12:19;15.40;76.80
38265;DHT22;24062;47.480;8.768;2022-09-24T05:14:46;15.40;76.80
38265;DHT22;24062;47.480;8.768;2022-09-24T05:17:13;15.40;76.90
38265;DHT22;24062;47.480;8.768;2022-09-24T05:19:40;15.40;76.90
38265;DHT22;24062;47.480;8.768;2022-09-24T05:22:07;15.40;77.00
38265;DHT22;24062;47.480;8.768;2022-09-24T05:24:35;15.40;77.10
38265;DHT22;24062;47.480;8.768;2022-09-24T05:27:02;15.40;77.20
38265;DHT22;24062;47.480;8.768;2022-09-24T05:29:35;15.40;77.30
38265;DHT22;24062;47.480;8.768;2022-09-24T05:32:06;15.40;77.40
38265;DHT22;24062;47.480;8.768;2022-09-24T05:34:33;15.40;77.30
38265;DHT22;24062;47.480;8.768;2022-09-24T05:37:01;15.40;77.40
38265;DHT22;24062;47.480;8.768;2022-09-24T05:39:28;15.40;77.40
38265;DHT22;24062;47.480;8.768;2022-09-24T05:41:56;15.40;77.60
38265;DHT22;24062;47.480;8.768;2022-09-24T05:44:24;15.40;77.70
38265;DHT22;24062;47.480;8.768;2022-09-24T05:46:51;15.50;77.80
38265;DHT22;24062;47.480;8.768;2022-09-24T05:49:18;15.50;77.80
38265;DHT22;24062;47.480;8.768;2022-09-24T05:51:47;15.50;77.90
38265;DHT22;24062;47.480;8.768;2022-09-24T05:54:14;15.60;78.10
38265;DHT22;24062;47.480;8.768;2022-09-24T05:56:42;15.60;78.00
38265;DHT22;24062;47.480;8.768;2022-09-24T05:59:10;15.60;78.10
38265;DHT22;24062;47.480;8.768;2022-09-24T06:01:37;15.60;78.00
38265;DHT22;24062;47.480;8.768;2022-09-24T06:04:04;15.60;78.10
38265;DHT22;24062;47.480;8.768;2022-09-24T06:06:31;15.60;78.20
38265;DHT22;24062;47.480;8.768;2022-09-24T06:08:58;15.60;78.30
38265;DHT22;24062;47.480;8.768;2022-09-24T06:11:25;15.60;78.40
38265;DHT22;24062;47.480;8.768;2022-09-24T06:13:54;15.70;78.60
38265;DHT22;24062;47.480;8.768;2022-09-24T06:16:22;15.70;78.60
38265;DHT22;24062;47.480;8.768;2022-09-24T06:18:49;15.80;78.60
38265;DHT22;24062;47.480;8.768;2022-09-24T06:21:16;15.80;78.50
38265;DHT22;24062;47.480;8.768;2022-09-24T06:23:43;15.80;78.50
38265;DHT22;24062;47.480;8.768;2022-09-24T06:26:12;15.90;78.50
38265;DHT22;24062;47.480;8.768;2022-09-24T06:28:40;15.90;78.40
38265;DHT22;24062;47.480;8.768;2022-09-24T06:31:08;15.90;78.40
38265;DHT22;24062;47.480;8.768;2022-09-24T06:33:38;15.90;78.40
38265;DHT22;24062;47.480;8.768;2022-09-24T06:36:05;15.90;78.70
38265;DHT22;24062;47.480;8.768;2022-09-24T06:38:32;16.00;78.90
38265;DHT22;24062;47.480;8.768;2022-09-24T06:41:01;16.10;79.10
38265;DHT22;24062;47.480;8.768;2022-09-24T06:43:28;16.10;79.00
38265;DHT22;24062;47.480;8.768;2022-09-24T06:45:56;16.20;78.80
38265;DHT22;24062;47.480;8.768;2022-09-24T06:48:23;16.20;78.90
38265;DHT22;24062;47.480;8.768;2022-09-24T06:50:52;16.20;79.00
38265;DHT22;24062;47.480;8.768;2022-09-24T06:53:20;16.30;79.10
38265;DHT22;24062;47.480;8.768;2022-09-24T06:55:48;16.40;79.20
38265;DHT22;24062;47.480;8.768;2022-09-24T06:58:16;16.50;79.30
38265;DHT22;24062;47.480;8.768;2022-09-24T07:00:49;16.50;79.30
38265;DHT22;24062;47.480;8.768;2022-09-24T07:03:17;16.70;79.60
38265;DHT22;24062;47.480;8.768;2022-09-24T07:05:44;16.80;79.50
38265;DHT22;24062;47.480;8.768;2022-09-24T07:08:12;16.90;79.70
38265;DHT22;24062;47.480;8.768;2022-09-24T07:10:41;17.10;79.90
38265;DHT22;24062;47.480;8.768;2022-09-24T07:13:09;17.20;79.80
38265;DHT22;24062;47.480;8.768;2022-09-24T07:15:35;17.30;79.60
38265;DHT22;24062;47.480;8.768;2022-09-24T07:18:02;17.30;79.40
38265;DHT22;24062;47.480;8.768;2022-09-24T07:20:29;17.30;79.40
38265;DHT22;24062;47.480;8.768;2022-09-24T07:22:57;17.30;79.20
38265;DHT22;24062;47.480;8.768;2022-09-24T07:25:26;17.20;79.00
38265;DHT22;24062;47.480;8.768;2022-09-24T07:27:52;17.20;79.00
38265;DHT22;24062;47.480;8.768;2022-09-24T07:30:19;17.20;79.10
38265;DHT22;24062;47.480;8.768;2022-09-24T07:32:46;17.10;79.10
38265;DHT22;24062;47.480;8.768;2022-09-24T07:35:15;17.20;79.30
38265;DHT22;24062;47.480;8.768;2022-09-24T07:37:42;17.20;79.40
38265;DHT22;24062;47.480;8.768;2022-09-24T07:40:09;17.20;79.40
38265;DHT22;24062;47.480;8.768;2022-09-24T07:42:45;17.10;79.00
38265;DHT22;24062;47.480;8.768;2022-09-24T07:45:13;17.10;79.10
38265;DHT22;24062;47.480;8.768;2022-09-24T07:47:40;17.00;79.10
38265;DHT22;24062;47.480;8.768;2022-09-24T07:50:07;17.00;79.20
38265;DHT22;24062;47.480;8.768;2022-09-24T07:52:34;16.90;79.10
38265;DHT22;24062;47.480;8.768;2022-09-24T07:55:01;17.00;79.10
38265;DHT22;24062;47.480;8.768;2022-09-24T07:57:28;16.90;79.10
38265;DHT22;24062;47.480;8.768;2022-09-24T07:59:56;16.90;79.30
38265;DHT22;24062;47.480;8.768;2022-09-24T08:02:23;16.90;79.60
38265;DHT22;24062;47.480;8.768;2022-09-24T08:04:50;17.00;79.70
38265;DHT22;24062;47.480;8.768;2022-09-24T08:07:17;17.10;79.80
38265;DHT22;24062;47.480;8.768;2022-09-24T08:09:44;17.20;79.70
38265;DHT22;24062;47.480;8.768;2022-09-24T08:12:11;17.20;79.70
38265;DHT22;24062;47.480;8.768;2022-09-24T08:14:37;17.30;79.80
38265;DHT22;24062;47.480;8.768;2022-09-24T08:17:07;17.50;79.70
38265;DHT22;24062;47.480;8.768;2022-09-24T08:19:34;17.50;79.60
38265;DHT22;24062;47.480;8.768;2022-09-24T08:22:01;17.50;79.50
38265;DHT22;24062;47.480;8.768;2022-09-24T08:24:29;17.60;79.60
38265;DHT22;24062;47.480;8.768;2022-09-24T08:26:57;17.60;79.40
38265;DHT22;24062;47.480;8.768;2022-09-24T08:29:24;17.60;79.20
38265;DHT22;24062;47.480;8.768;2022-09-24T08:31:51;17.60;79.10
38265;DHT22;24062;47.480;8.768;2022-09-24T08:34:19;17.60;79.30
38265;DHT22;24062;47.480;8.768;2022-09-24T08:36:46;17.50;79.20
38265;DHT22;24062;47.480;8.768;2022-09-24T08:39:14;17.60;79.40
38265;DHT22;24062;47.480;8.768;2022-09-24T08:41:52;17.60;79.60
38265;DHT22;24062;47.480;8.768;2022-09-24T08:44:26;17.70;79.70
38265;DHT22;24062;47.480;8.768;2022-09-24T08:47:15;17.70;79.60
38265;DHT22;24062;47.480;8.768;2022-09-24T08:50:05;17.80;79.80
38265;DHT22;24062;47.480;8.768;2022-09-24T08:52:50;17.90;80.00
38265;DHT22;24062;47.480;8.768;2022-09-24T08:55:21;18.00;80.00
38265;DHT22;24062;47.480;8.768;2022-09-24T08:57:58;18.10;80.10
38265;DHT22;24062;47.480;8.768;2022-09-24T09:00:28;18.20;80.00
38265;DHT22;24062;47.480;8.768;2022-09-24T09:03:01;18.20;79.40
38265;DHT22;24062;47.480;8.768;2022-09-24T09:05:46;18.10;79.20
38265;DHT22;24062;47.480;8.768;2022-09-24T09:08:18;18.00;79.10
38265;DHT22;24062;47.480;8.768;2022-09-24T09:10:48;18.10;79.50
38265;DHT22;24062;47.480;8.768;2022-09-24T09:13:22;18.10;79.40
38265;DHT22;24062;47.480;8.768;2022-09-24T09:15:59;18.10;79.50
38265;DHT22;24062;47.480;8.768;2022-09-24T09:18:30;18.00;79.30
38265;DHT22;24062;47.480;8.768;2022-09-24T09:21:05;18.00;79.10
38265;DHT22;24062;47.480;8.768;2022-09-24T09:23:40;18.00;79.20
38265;DHT22;24062;47.480;8.768;2022-09-24T09:26:11;18.10;79.50
38265;DHT22;24062;47.480;8.768;2022-09-24T09:28:38;18.10;79.60
38265;DHT22;24062;47.480;8.768;2022-09-24T09:31:11;18.20;79.70
38265;DHT22;24062;47.480;8.768;2022-09-24T09:33:59;18.30;79.60
38265;DHT22;24062;47.480;8.768;2022-09-24T09:36:42;18.50;79.80
38265;DHT22;24062;47.480;8.768;2022-09-24T09:39:26;18.70;79.80
38265;DHT22;24062;47.480;8.768;2022-09-24T09:41:59;18.70;79.30
38265;DHT22;24062;47.480;8.768;2022-09-24T09:44:29;18.70;78.90
38265;DHT22;24062;47.480;8.768;2022-09-24T09:47:10;18.70;78.90
38265;DHT22;24062;47.480;8.768;2022-09-24T09:49:39;18.70;78.90
38265;DHT22;24062;47.480;8.768;2022-09-24T09:52:14;18.80;79.20
38265;DHT22;24062;47.480;8.768;2022-09-24T09:54:42;18.80;78.90
38265;DHT22;24062;47.480;8.768;2022-09-24T09:57:13;18.80;79.10
38265;DHT22;24062;47.480;8.768;2022-09-24T09:59:45;18.90;79.30
38265;DHT22;24062;47.480;8.768;2022-09-24T10:02:21;19.00;79.10
38265;DHT22;24062;47.480;8.768;2022-09-24T10:04:52;18.90;78.60
38265;DHT22;24062;47.480;8.768;2022-09-24T10:07:22;18.90;78.40
38265;DHT22;24062;47.480;8.768;2022-09-24T10:09:59;18.80;78.40
38265;DHT22;24062;47.480;8.768;2022-09-24T10:12:27;18.80;78.70
38265;DHT22;24062;47.480;8.768;2022-09-24T10:14:59;18.80;78.80
38265;DHT22;24062;47.480;8.768;2022-09-24T10:17:33;18.80;78.60
38265;DHT22;24062;47.480;8.768;2022-09-24T10:20:01;18.80;78.60
38265;DHT22;24062;47.480;8.768;2022-09-24T10:22:34;18.80;78.50
38265;DHT22;24062;47.480;8.768;2022-09-24T10:25:03;18.80;78.60
38265;DHT22;24062;47.480;8.768;2022-09-24T10:27:33;18.90;79.10
38265;DHT22;24062;47.480;8.768;2022-09-24T10:30:02;19.10;79.60
38265;DHT22;24062;47.480;8.768;2022-09-24T10:32:55;19.40;79.60
38265;DHT22;24062;47.480;8.768;2022-09-24T10:35:26;19.50;78.80
38265;DHT22;24062;47.480;8.768;2022-09-24T10:37:57;19.60;78.80
38265;DHT22;24062;47.480;8.768;2022-09-24T10:40:26;19.70;79.10
38265;DHT22;24062;47.480;8.768;2022-09-24T10:42:57;19.80;78.90
38265;DHT22;24062;47.480;8.768;2022-09-24T10:48:33;19.80;78.30
38265;DHT22;24062;47.480;8.768;2022-09-24T10:51:08;19.70;77.50
38265;DHT22;24062;47.480;8.768;2022-09-24T10:53:47;19.50;77.20
38265;DHT22;24062;47.480;8.768;2022-09-24T10:56:19;19.40;77.70
38265;DHT22;24062;47.480;8.768;2022-09-24T10:59:14;19.40;77.80
38265;DHT22;24062;47.480;8.768;2022-09-24T11:01:47;19.40;77.90
38265;DHT22;24062;47.480;8.768;2022-09-24T11:04:24;19.50;78.00
38265;DHT22;24062;47.480;8.768;2022-09-24T11:10:07;19.70;78.20
38265;DHT22;24062;47.480;8.768;2022-09-24T11:12:44;19.90;78.10
38265;DHT22;24062;47.480;8.768;2022-09-24T11:15:25;20.00;78.20
38265;DHT22;24062;47.480;8.768;2022-09-24T11:18:08;20.10;77.80
38265;DHT22;24062;47.480;8.768;2022-09-24T11:20:44;20.20;77.40
38265;DHT22;24062;47.480;8.768;2022-09-24T11:23:25;20.30;77.40
38265;DHT22;24062;47.480;8.768;2022-09-24T11:26:04;20.30;77.20
38265;DHT22;24062;47.480;8.768;2022-09-24T11:28:59;20.40;77.50
38265;DHT22;24062;47.480;8.768;2022-09-24T11:31:33;20.50;77.20
38265;DHT22;24062;47.480;8.768;2022-09-24T11:34:17;20.60;76.90
38265;DHT22;24062;47.480;8.768;2022-09-24T11:37:02;20.70;76.90
38265;DHT22;24062;47.480;8.768;2022-09-24T11:39:44;20.70;76.70
38265;DHT22;24062;47.480;8.768;2022-09-24T11:42:23;20.60;76.30
38265;DHT22;24062;47.480;8.768;2022-09-24T11:45:26;20.70;76.40
38265;DHT22;24062;47.480;8.768;2022-09-24T11:48:14;20.80;76.60
38265;DHT22;24062;47.480;8.768;2022-09-24T11:50:52;21.00;76.60
38265;DHT22;24062;47.480;8.768;2022-09-24T11:53:27;21.30;76.40
38265;DHT22;24062;47.480;8.768;2022-09-24T11:56:00;21.50;76.40
38265;DHT22;24062;47.480;8.768;2022-09-24T11:58:30;21.80;76.60
38265;DHT22;24062;47.480;8.768;2022-09-24T12:01:02;22.10;76.30
38265;DHT22;24062;47.480;8.768;2022-09-24T12:03:37;22.20;75.30
38265;DHT22;24062;47.480;8.768;2022-09-24T12:06:08;22.30;75.10
38265;DHT22;24062;47.480;8.768;2022-09-24T12:08:41;22.30;74.90
38265;DHT22;24062;47.480;8.768;2022-09-24T12:11:14;22.40;74.50
38265;DHT22;24062;47.480;8.768;2022-09-24T12:13:48;22.20;73.60
38265;DHT22;24062;47.480;8.768;2022-09-24T12:16:19;22.10;73.30
38265;DHT22;24062;47.480;8.768;2022-09-24T12:18:53;21.80;73.10
38265;DHT22;24062;47.480;8.768;2022-09-24T12:21:24;21.70;73.20
38265;DHT22;24062;47.480;8.768;2022-09-24T12:23:56;21.60;73.30
38265;DHT22;24062;47.480;8.768;2022-09-24T12:26:26;21.60;73.30
38265;DHT22;24062;47.480;8.768;2022-09-24T12:29:01;21.50;72.90
38265;DHT22;24062;47.480;8.768;2022-09-24T12:31:59;21.40;72.90
38265;DHT22;24062;47.480;8.768;2022-09-24T12:34:52;21.30;72.50
38265;DHT22;24062;47.480;8.768;2022-09-24T12:37:24;21.40;72.90
38265;DHT22;24062;47.480;8.768;2022-09-24T12:40:01;21.30;71.90
38265;DHT22;24062;47.480;8.768;2022-09-24T12:42:33;21.00;71.20
38265;DHT22;24062;47.480;8.768;2022-09-24T12:45:05;20.80;71.00
38265;DHT22;24062;47.480;8.768;2022-09-24T12:47:45;20.50;71.40
38265;DHT22;24062;47.480;8.768;2022-09-24T12:50:19;20.40;71.80
38265;DHT22;24062;47.480;8.768;2022-09-24T12:52:47;20.40;72.00
38265;DHT22;24062;47.480;8.768;2022-09-24T12:55:21;20.40;72.00
38265;DHT22;24062;47.480;8.768;2022-09-24T12:57:52;20.40;72.00
38265;DHT22;24062;47.480;8.768;2022-09-24T13:00:41;20.50;72.40
38265;DHT22;24062;47.480;8.768;2022-09-24T13:03:31;20.50;72.30
38265;DHT22;24062;47.480;8.768;2022-09-24T13:05:58;20.60;72.40
38265;DHT22;24062;47.480;8.768;2022-09-24T13:08:33;20.70;72.30
38265;DHT22;24062;47.480;8.768;2022-09-24T13:11:02;20.80;72.40
38265;DHT22;24062;47.480;8.768;2022-09-24T13:13:34;20.90;72.10
38265;DHT22;24062;47.480;8.768;2022-09-24T13:16:05;21.10;72.10
38265;DHT22;24062;47.480;8.768;2022-09-24T13:18:34;21.20;72.10
38265;DHT22;24062;47.480;8.768;2022-09-24T13:21:04;21.20;71.50
38265;DHT22;24062;47.480;8.768;2022-09-24T13:23:46;21.10;70.80
38265;DHT22;24062;47.480;8.768;2022-09-24T13:26:30;21.00;71.30
38265;DHT22;24062;47.480;8.768;2022-09-24T13:28:59;21.10;71.60
38265;DHT22;24062;47.480;8.768;2022-09-24T13:31:47;21.10;71.60
38265;DHT22;24062;47.480;8.768;2022-09-24T13:34:18;21.10;71.10
38265;DHT22;24062;47.480;8.768;2022-09-24T13:36:51;21.10;71.20
38265;DHT22;24062;47.480;8.768;2022-09-24T13:39:23;21.10;71.30
38265;DHT22;24062;47.480;8.768;2022-09-24T13:41:58;21.30;71.80
38265;DHT22;24062;47.480;8.768;2022-09-24T13:44:29;21.40;71.90
38265;DHT22;24062;47.480;8.768;2022-09-24T13:47:04;21.80;72.60
38265;DHT22;24062;47.480;8.768;2022-09-24T13:49:37;22.20;72.20
38265;DHT22;24062;47.480;8.768;2022-09-24T13:52:11;22.30;71.30
38265;DHT22;24062;47.480;8.768;2022-09-24T13:54:48;22.40;70.90
38265;DHT22;24062;47.480;8.768;2022-09-24T13:57:22;22.40;70.60
38265;DHT22;24062;47.480;8.768;2022-09-24T13:59:49;22.30;70.00
38265;DHT22;24062;47.480;8.768;2022-09-24T14:02:32;22.10;69.70
38265;DHT22;24062;47.480;8.768;2022-09-24T14:05:00;21.90;69.30
38265;DHT22;24062;47.480;8.768;2022-09-24T14:07:28;21.70;69.30
38265;DHT22;24062;47.480;8.768;2022-09-24T14:10:04;21.60;69.60
38265;DHT22;24062;47.480;8.768;2022-09-24T14:12:32;21.50;69.60
38265;DHT22;24062;47.480;8.768;2022-09-24T14:14:59;21.40;69.40
38265;DHT22;24062;47.480;8.768;2022-09-24T14:17:30;21.30;69.40
38265;DHT22;24062;47.480;8.768;2022-09-24T14:19:57;21.30;69.60
38265;DHT22;24062;47.480;8.768;2022-09-24T14:22:27;21.40;69.90
38265;DHT22;24062;47.480;8.768;2022-09-24T14:24:58;21.50;69.90
38265;DHT22;24062;47.480;8.768;2022-09-24T14:27:26;21.70;70.80
38265;DHT22;24062;47.480;8.768;2022-09-24T14:29:56;22.30;71.50
38265;DHT22;24062;47.480;8.768;2022-09-24T14:32:27;22.90;72.10
38265;DHT22;24062;47.480;8.768;2022-09-24T14:34:58;23.40;71.30
38265;DHT22;24062;47.480;8.768;2022-09-24T14:37:28;23.60;70.10
38265;DHT22;24062;47.480;8.768;2022-09-24T14:39:59;23.70;69.80
38265;DHT22;24062;47.480;8.768;2022-09-24T14:42:31;23.90;70.00
38265;DHT22;24062;47.480;8.768;2022-09-24T14:45:00;24.00;69.30
38265;DHT22;24062;47.480;8.768;2022-09-24T14:47:30;24.10;69.30
38265;DHT22;24062;47.480;8.768;2022-09-24T14:49:59;24.00;68.30
38265;DHT22;24062;47.480;8.768;2022-09-24T14:52:30;23.80;67.10
38265;DHT22;24062;47.480;8.768;2022-09-24T14:55:11;23.70;67.20
38265;DHT22;24062;47.480;8.768;2022-09-24T14:57:38;23.90;68.50
38265;DHT22;24062;47.480;8.768;2022-09-24T15:00:22;24.30;67.40
38265;DHT22;24062;47.480;8.768;2022-09-24T15:02:56;24.10;66.10
38265;DHT22;24062;47.480;8.768;2022-09-24T15:05:27;24.00;65.80
38265;DHT22;24062;47.480;8.768;2022-09-24T15:08:14;24.10;67.20
38265;DHT22;24062;47.480;8.768;2022-09-24T15:10:51;26.10;72.80
38265;DHT22;24062;47.480;8.768;2022-09-24T15:13:22;26.70;64.80
38265;DHT22;24062;47.480;8.768;2022-09-24T15:16:01;26.00;63.30
38265;DHT22;24062;47.480;8.768;2022-09-24T15:18:29;25.20;62.00
38265;DHT22;24062;47.480;8.768;2022-09-24T15:20:57;24.50;62.40
38265;DHT22;24062;47.480;8.768;2022-09-24T15:23:24;23.80;62.10
38265;DHT22;24062;47.480;8.768;2022-09-24T15:25:51;23.30;62.20
38265;DHT22;24062;47.480;8.768;2022-09-24T15:28:18;22.80;62.00
38265;DHT22;24062;47.480;8.768;2022-09-24T15:30:47;22.40;62.00
38265;DHT22;24062;47.480;8.768;2022-09-24T15:33:14;21.90;62.10
38265;DHT22;24062;47.480;8.768;2022-09-24T15:35:42;21.70;62.60
38265;DHT22;24062;47.480;8.768;2022-09-24T15:38:13;22.20;64.60
38265;DHT22;24062;47.480;8.768;2022-09-24T15:40:42;22.30;63.20
38265;DHT22;24062;47.480;8.768;2022-09-24T15:43:17;22.30;62.50
38265;DHT22;24062;47.480;8.768;2022-09-24T15:45:44;22.00;62.10
38265;DHT22;24062;47.480;8.768;2022-09-24T15:48:11;21.80;62.40
38265;DHT22;24062;47.480;8.768;2022-09-24T15:50:39;21.60;62.60
38265;DHT22;24062;47.480;8.768;2022-09-24T15:53:06;21.40;62.80
38265;DHT22;24062;47.480;8.768;2022-09-24T15:55:38;21.30;63.00
38265;DHT22;24062;47.480;8.768;2022-09-24T15:58:09;21.20;62.80
38265;DHT22;24062;47.480;8.768;2022-09-24T16:00:39;21.10;62.90
38265;DHT22;24062;47.480;8.768;2022-09-24T16:03:13;20.80;62.60